首页
METAR-TAF:

METAR-TAF

机场 :

拉梅齊亞泰爾梅, 意大利

纬度: 38-54N, 经度: 016-15E, 海拔: 15米

当前天气观测

该预报发布于33分钟前的00:50 UTC
风速4节,风向
温度 13°C
湿度 100%
气压 1019 hPa
能见度10公里或以上
少量云层高于3000英尺

METAR: LICA 170050Z 09004KT 9999 FEW030 13/13 Q1019

时间: 03:23 (01:23 UTC)

预报

该预报发布于2小时和23分钟前的23:00 UTC
预报有效从17日的 00点(UTC)到 17日的 24点(UTC)
风速5节,风向多变
能見度: 7000
散云层高于2000英尺
成为
从 17日的 08点(UTC)到 17日的 10点(UTC)
风速12节,风向西
成为
从 17日的 16点(UTC)到 17日的 18点(UTC)
风速5节,风向多变

TAF: LICA 162300Z 1700/1724 VRB05KT 7000 SCT020 BECMG 1708/1710 26012KT BECMG 1716/1718 VRB05KT

超过4000个机场的气象观测和天气预报(METAR&TAF报告)。

可查询的气象台以黄色和红色小点在地图上表示。

将鼠标移到小点上方,可查看气象台名称。

然后点击查看天气观测和预报。

如需切换地图:点击带黑十字的绿色按钮放大地图;点击带横线的绿色按钮缩小地图;或者点击绿色箭头查看邻近地区的地图。


METAR-TAF: